Terminal Aerodrome Forecast
Issued by NWS St Louis, MO

Home | Current Version | Previous Version | Text Only | Print | Product List | Glossary On
Versions: 1 2 3 4 5 6 7 8 9 10 11 12 13 14 15 16 17 18
000
FTUS43 KLSX 241700
TAFSTL
TAF
KSTL 241720Z 2418/2524 29012KT 4SM -RA BR OVC009
     FM250000 27009KT P6SM OVC015
     FM250600 25006KT P6SM OVC022
     FM251300 19010KT P6SM BKN250=

USA.gov is the U.S. government's official web portal to all federal, state and local government web resources and services.